AAG245 EDDN-EDHL
Flight info
| Callsign | AAG245 |
|---|---|
| Flight time | 1h 22m |
| Altitude | 8000 |
| Route | NUB DCT NUB001040 DCT ERF181020 DCT ERF DCT ERF342020 DCT ZUCKA M852 HLZ DCT HLZ353030 DCT HLZ353060 DCT RARUP |
| Aircraft | DC6/M-V/N |
Departure
| Time | 2026-04-28 20:48 |
|---|---|
| Airport | Nuremberg Airport (EDDN) |
Arrival
| Time | 2026-04-28 22:10 |
|---|---|
| Airport | Lübeck Blankensee Airport (EDHL) |
| Time | Latitude | Longitude | Altitude | Speed | Heading |
|---|---|---|---|---|---|
| 2026-04-28 20:32 | 49.49546 | 11.08571 | 1034 ft | 0 kts | 8° |
| 2026-04-28 20:41 | 49.49548 | 11.08572 | 1034 ft | 1 kts | 8° |
| 2026-04-28 20:41 | 49.49562 | 11.08575 | 1035 ft | 2 kts | 8° |
| 2026-04-28 20:41 | 49.49587 | 11.08575 | 1035 ft | 5 kts | 338° |
| 2026-04-28 20:42 | 49.49608 | 11.08506 | 1035 ft | 13 kts | 279° |
| 2026-04-28 20:42 | 49.49607 | 11.08369 | 1033 ft | 12 kts | 229° |
| 2026-04-28 20:42 | 49.49543 | 11.08330 | 1030 ft | 10 kts | 233° |
| 2026-04-28 20:42 | 49.49542 | 11.08197 | 1028 ft | 16 kts | 280° |
| 2026-04-28 20:43 | 49.49562 | 11.08001 | 1026 ft | 20 kts | 278° |
| 2026-04-28 20:43 | 49.49588 | 11.07812 | 1023 ft | 15 kts | 308° |
| 2026-04-28 20:43 | 49.49679 | 11.07730 | 1026 ft | 17 kts | 302° |
| 2026-04-28 20:43 | 49.49706 | 11.07516 | 1024 ft | 24 kts | 281° |
| 2026-04-28 20:44 | 49.49735 | 11.07244 | 1022 ft | 28 kts | 277° |
| 2026-04-28 20:44 | 49.49763 | 11.06934 | 1020 ft | 31 kts | 280° |
| 2026-04-28 20:44 | 49.49790 | 11.06623 | 1020 ft | 17 kts | 281° |
| 2026-04-28 20:44 | 49.49846 | 11.06517 | 1021 ft | 14 kts | 335° |
| 2026-04-28 20:45 | 49.49910 | 11.06479 | 1022 ft | 0 kts | 339° |
| 2026-04-28 20:45 | 49.49927 | 11.06472 | 1022 ft | 4 kts | 351° |
| 2026-04-28 20:45 | 49.49967 | 11.06473 | 1023 ft | 7 kts | 4° |
| 2026-04-28 20:45 | 49.49999 | 11.06504 | 1019 ft | 5 kts | 84° |
| 2026-04-28 20:46 | 49.49998 | 11.06529 | 1024 ft | 0 kts | 99° |
| 2026-04-28 20:46 | 49.49997 | 11.06533 | 1024 ft | 7 kts | 99° |
| 2026-04-28 20:47 | 49.49958 | 11.06917 | 1024 ft | 64 kts | 99° |
| 2026-04-28 20:47 | 49.49864 | 11.07850 | 1029 ft | 109 kts | 98° |
| 2026-04-28 20:47 | 49.49729 | 11.09078 | 1168 ft | 121 kts | 96° |
| 2026-04-28 20:47 | 49.49608 | 11.10412 | 1384 ft | 130 kts | 94° |
| 2026-04-28 20:48 | 49.49496 | 11.11846 | 1615 ft | 141 kts | 92° |
| 2026-04-28 20:48 | 49.49395 | 11.13439 | 1796 ft | 155 kts | 93° |
| 2026-04-28 20:48 | 49.49287 | 11.15030 | 2351 ft | 148 kts | 93° |
| 2026-04-28 20:48 | 49.49180 | 11.16595 | 2722 ft | 147 kts | 94° |
| 2026-04-28 20:49 | 49.49058 | 11.18148 | 3036 ft | 148 kts | 96° |
| 2026-04-28 20:49 | 49.48912 | 11.19715 | 3379 ft | 148 kts | 96° |
| 2026-04-28 20:49 | 49.48774 | 11.21299 | 3649 ft | 151 kts | 96° |
| 2026-04-28 20:49 | 49.48658 | 11.22929 | 3896 ft | 156 kts | 96° |
| 2026-04-28 20:50 | 49.48525 | 11.24602 | 4147 ft | 158 kts | 99° |
| 2026-04-28 20:50 | 49.48055 | 11.26171 | 4288 ft | 171 kts | 127° |
| 2026-04-28 20:50 | 49.47062 | 11.27190 | 4562 ft | 176 kts | 156° |
| 2026-04-28 20:50 | 49.45829 | 11.27301 | 4816 ft | 184 kts | 186° |
| 2026-04-28 20:51 | 49.44662 | 11.26363 | 5005 ft | 197 kts | 220° |
| 2026-04-28 20:51 | 49.43992 | 11.24566 | 5368 ft | 195 kts | 254° |
| 2026-04-28 20:51 | 49.43977 | 11.22535 | 5654 ft | 195 kts | 282° |
| 2026-04-28 20:51 | 49.44274 | 11.21205 | 5812 ft | 196 kts | 297° |
| 2026-04-28 20:52 | 49.45115 | 11.18757 | 6081 ft | 201 kts | 299° |
| 2026-04-28 20:52 | 49.45802 | 11.16822 | 6131 ft | 212 kts | 299° |
| 2026-04-28 20:52 | 49.46519 | 11.14773 | 6161 ft | 223 kts | 299° |
| 2026-04-28 20:52 | 49.47283 | 11.12638 | 6172 ft | 233 kts | 300° |
| 2026-04-28 20:53 | 49.48913 | 11.08172 | 6166 ft | 245 kts | 301° |
| 2026-04-28 20:53 | 49.49769 | 11.05878 | 6160 ft | 249 kts | 300° |
| 2026-04-28 20:53 | 49.50823 | 11.03796 | 6165 ft | 247 kts | 323° |
| 2026-04-28 20:54 | 49.52367 | 11.02734 | 6180 ft | 245 kts | 350° |
| 2026-04-28 20:54 | 49.54062 | 11.02741 | 6155 ft | 244 kts | 13° |
| 2026-04-28 20:54 | 49.55717 | 11.03287 | 6179 ft | 243 kts | 14° |
| 2026-04-28 20:54 | 49.57388 | 11.03717 | 6192 ft | 244 kts | 9° |
| 2026-04-28 20:55 | 49.59069 | 11.04117 | 6203 ft | 244 kts | 11° |
| 2026-04-28 20:55 | 49.60745 | 11.04572 | 6186 ft | 245 kts | 13° |
| 2026-04-28 20:55 | 49.62428 | 11.04971 | 6200 ft | 245 kts | 10° |
| 2026-04-28 20:55 | 49.64097 | 11.05302 | 6220 ft | 245 kts | 9° |
| 2026-04-28 20:56 | 49.65796 | 11.05618 | 6221 ft | 246 kts | 9° |
| 2026-04-28 20:56 | 49.67501 | 11.05941 | 6214 ft | 247 kts | 9° |
| 2026-04-28 20:56 | 49.69201 | 11.06272 | 6243 ft | 246 kts | 9° |
| 2026-04-28 20:56 | 49.70895 | 11.06617 | 6280 ft | 245 kts | 9° |
| 2026-04-28 20:57 | 49.72578 | 11.06964 | 6292 ft | 244 kts | 9° |
| 2026-04-28 20:57 | 49.74232 | 11.07276 | 6560 ft | 233 kts | 7° |
| 2026-04-28 20:57 | 49.75825 | 11.07487 | 6753 ft | 229 kts | 7° |
| 2026-04-28 20:57 | 49.77388 | 11.07680 | 7023 ft | 220 kts | 5° |
| 2026-04-28 20:58 | 49.78880 | 11.07748 | 7334 ft | 212 kts | 4° |
| 2026-04-28 20:58 | 49.80355 | 11.07819 | 7547 ft | 212 kts | 3° |
| 2026-04-28 20:58 | 49.81830 | 11.07884 | 7746 ft | 212 kts | 3° |
| 2026-04-28 20:58 | 49.83290 | 11.07917 | 8059 ft | 207 kts | 2° |
| 2026-04-28 20:59 | 49.84655 | 11.07933 | 8306 ft | 205 kts | 2° |
| 2026-04-28 20:59 | 49.85866 | 11.07937 | 8509 ft | 204 kts | 2° |
| 2026-04-28 20:59 | 49.87266 | 11.08038 | 8838 ft | 199 kts | 6° |
| 2026-04-28 20:59 | 49.88647 | 11.08266 | 9060 ft | 200 kts | 8° |
| 2026-04-28 21:00 | 49.90006 | 11.08529 | 9421 ft | 193 kts | 8° |
| 2026-04-28 21:00 | 49.91331 | 11.08788 | 9718 ft | 193 kts | 8° |
| 2026-04-28 21:00 | 49.92689 | 11.09078 | 9836 ft | 199 kts | 8° |
| 2026-04-28 21:00 | 49.94039 | 11.09413 | 10205 ft | 192 kts | 9° |
| 2026-04-28 21:01 | 49.95339 | 11.09754 | 10503 ft | 190 kts | 10° |
| 2026-04-28 21:01 | 49.96655 | 11.10166 | 10634 ft | 195 kts | 12° |
| 2026-04-28 21:01 | 49.97971 | 11.10636 | 10928 ft | 192 kts | 13° |
| 2026-04-28 21:01 | 49.99258 | 11.11131 | 11209 ft | 190 kts | 13° |
| 2026-04-28 21:02 | 50.00563 | 11.11607 | 11372 ft | 195 kts | 12° |
| 2026-04-28 21:02 | 50.01886 | 11.12095 | 11636 ft | 193 kts | 12° |
| 2026-04-28 21:02 | 50.03178 | 11.12551 | 11964 ft | 189 kts | 12° |
| 2026-04-28 21:02 | 50.04477 | 11.12984 | 12117 ft | 194 kts | 11° |
| 2026-04-28 21:03 | 50.05813 | 11.13416 | 12328 ft | 195 kts | 11° |
| 2026-04-28 21:03 | 50.07120 | 11.13824 | 12685 ft | 189 kts | 9° |
| 2026-04-28 21:03 | 50.08425 | 11.14177 | 12872 ft | 193 kts | 8° |
| 2026-04-28 21:03 | 50.09746 | 11.14499 | 13077 ft | 194 kts | 7° |
| 2026-04-28 21:04 | 50.11065 | 11.14804 | 13444 ft | 189 kts | 7° |
| 2026-04-28 21:04 | 50.12381 | 11.15069 | 13640 ft | 193 kts | 6° |
| 2026-04-28 21:04 | 50.13738 | 11.15309 | 13802 ft | 197 kts | 6° |
| 2026-04-28 21:04 | 50.15090 | 11.15563 | 14112 ft | 193 kts | 6° |
| 2026-04-28 21:05 | 50.16416 | 11.15862 | 14340 ft | 194 kts | 8° |
| 2026-04-28 21:05 | 50.17764 | 11.16212 | 14469 ft | 199 kts | 8° |
| 2026-04-28 21:05 | 50.19129 | 11.16538 | 14678 ft | 197 kts | 7° |
| 2026-04-28 21:05 | 50.20481 | 11.16821 | 14916 ft | 195 kts | 6° |
| 2026-04-28 21:06 | 50.21839 | 11.17084 | 15054 ft | 199 kts | 5° |
| 2026-04-28 21:06 | 50.23220 | 11.17347 | 15202 ft | 200 kts | 6° |
| 2026-04-28 21:06 | 50.24591 | 11.17631 | 15439 ft | 197 kts | 6° |
| 2026-04-28 21:06 | 50.25952 | 11.17904 | 15611 ft | 198 kts | 5° |
| 2026-04-28 21:07 | 50.27334 | 11.18157 | 15715 ft | 202 kts | 5° |
| 2026-04-28 21:07 | 50.28259 | 11.18318 | 15825 ft | 201 kts | 4° |
| 2026-04-28 21:07 | 50.30111 | 11.18585 | 16080 ft | 200 kts | 3° |
| 2026-04-28 21:07 | 50.31503 | 11.18735 | 16177 ft | 203 kts | 2° |
| 2026-04-28 21:08 | 50.32935 | 11.18835 | 16193 ft | 209 kts | 0° |
| 2026-04-28 21:08 | 50.34400 | 11.18863 | 16276 ft | 211 kts | 358° |
| 2026-04-28 21:08 | 50.35383 | 11.18847 | 16265 ft | 216 kts | 358° |
| 2026-04-28 21:08 | 50.36729 | 11.18827 | 16248 ft | 220 kts | 358° |
| 2026-04-28 21:09 | 50.38267 | 11.18768 | 16245 ft | 222 kts | 357° |
| 2026-04-28 21:09 | 50.39813 | 11.18678 | 16236 ft | 222 kts | 357° |
| 2026-04-28 21:09 | 50.41857 | 11.18745 | 16220 ft | 224 kts | 10° |
| 2026-04-28 21:09 | 50.43306 | 11.19636 | 16257 ft | 224 kts | 22° |
| 2026-04-28 21:10 | 50.44755 | 11.20537 | 16260 ft | 225 kts | 15° |
| 2026-04-28 21:10 | 50.45777 | 11.20955 | 16258 ft | 225 kts | 10° |
| 2026-04-28 21:10 | 50.47330 | 11.21187 | 16257 ft | 225 kts | 358° |
| 2026-04-28 21:10 | 50.48889 | 11.20974 | 16263 ft | 225 kts | 353° |
| 2026-04-28 21:11 | 50.50450 | 11.20719 | 16265 ft | 226 kts | 353° |
| 2026-04-28 21:11 | 50.52022 | 11.20466 | 16267 ft | 228 kts | 353° |
| 2026-04-28 21:11 | 50.53602 | 11.20214 | 16265 ft | 229 kts | 353° |
| 2026-04-28 21:11 | 50.55186 | 11.19962 | 16268 ft | 229 kts | 353° |
| 2026-04-28 21:12 | 50.56779 | 11.19707 | 16272 ft | 230 kts | 353° |
| 2026-04-28 21:12 | 50.58373 | 11.19453 | 16269 ft | 231 kts | 353° |
| 2026-04-28 21:12 | 50.59974 | 11.19197 | 16274 ft | 231 kts | 353° |
| 2026-04-28 21:12 | 50.61575 | 11.18941 | 16275 ft | 231 kts | 353° |
| 2026-04-28 21:13 | 50.63142 | 11.19180 | 16233 ft | 232 kts | 19° |
| 2026-04-28 21:13 | 50.64637 | 11.20089 | 16266 ft | 230 kts | 15° |
| 2026-04-28 21:13 | 50.66210 | 11.20489 | 16270 ft | 229 kts | 4° |
| 2026-04-28 21:13 | 50.67797 | 11.20665 | 16281 ft | 229 kts | 3° |
| 2026-04-28 21:14 | 50.69393 | 11.20840 | 16283 ft | 231 kts | 3° |
| 2026-04-28 21:14 | 50.70995 | 11.21012 | 16288 ft | 231 kts | 3° |
| 2026-04-28 21:14 | 50.72603 | 11.21191 | 16285 ft | 232 kts | 3° |
| 2026-04-28 21:14 | 50.74214 | 11.21365 | 16286 ft | 232 kts | 3° |
| 2026-04-28 21:15 | 50.75825 | 11.21544 | 16287 ft | 233 kts | 3° |
| 2026-04-28 21:15 | 50.77444 | 11.21722 | 16285 ft | 233 kts | 3° |
| 2026-04-28 21:15 | 50.79059 | 11.21898 | 16287 ft | 233 kts | 3° |
| 2026-04-28 21:15 | 50.80678 | 11.22052 | 16290 ft | 233 kts | 2° |
| 2026-04-28 21:16 | 50.82299 | 11.22191 | 16291 ft | 233 kts | 2° |
| 2026-04-28 21:16 | 50.83921 | 11.22328 | 16290 ft | 234 kts | 2° |
| 2026-04-28 21:16 | 50.85545 | 11.22466 | 16292 ft | 234 kts | 2° |
| 2026-04-28 21:16 | 50.87169 | 11.22603 | 16288 ft | 234 kts | 2° |
| 2026-04-28 21:17 | 50.88791 | 11.22646 | 16284 ft | 233 kts | 356° |
| 2026-04-28 21:17 | 50.90394 | 11.22254 | 16283 ft | 232 kts | 348° |
| 2026-04-28 21:17 | 50.91976 | 11.21733 | 16284 ft | 232 kts | 348° |
| 2026-04-28 21:17 | 50.93566 | 11.21270 | 16282 ft | 232 kts | 351° |
| 2026-04-28 21:18 | 50.95161 | 11.20855 | 16286 ft | 232 kts | 351° |
| 2026-04-28 21:18 | 50.96766 | 11.20546 | 16285 ft | 232 kts | 354° |
| 2026-04-28 21:18 | 50.98377 | 11.20316 | 16285 ft | 233 kts | 354° |
| 2026-04-28 21:18 | 50.99991 | 11.20080 | 16286 ft | 233 kts | 354° |
| 2026-04-28 21:19 | 51.01604 | 11.19844 | 16287 ft | 233 kts | 354° |
| 2026-04-28 21:19 | 51.03214 | 11.19591 | 16282 ft | 232 kts | 351° |
| 2026-04-28 21:19 | 51.04780 | 11.18977 | 16281 ft | 232 kts | 343° |
| 2026-04-28 21:19 | 51.06319 | 11.18214 | 16283 ft | 232 kts | 343° |
| 2026-04-28 21:20 | 51.07861 | 11.17464 | 16285 ft | 232 kts | 343° |
| 2026-04-28 21:20 | 51.09405 | 11.16712 | 16283 ft | 232 kts | 343° |
| 2026-04-28 21:20 | 51.10950 | 11.15959 | 16288 ft | 232 kts | 343° |
| 2026-04-28 21:20 | 51.12491 | 11.15207 | 16287 ft | 232 kts | 343° |
| 2026-04-28 21:21 | 51.14034 | 11.14455 | 16288 ft | 232 kts | 343° |
| 2026-04-28 21:21 | 51.15557 | 11.13710 | 16290 ft | 232 kts | 343° |
| 2026-04-28 21:21 | 51.17100 | 11.12956 | 16292 ft | 232 kts | 343° |
| 2026-04-28 21:21 | 51.18643 | 11.12200 | 16294 ft | 232 kts | 343° |
| 2026-04-28 21:22 | 51.20184 | 11.11447 | 16299 ft | 232 kts | 343° |
| 2026-04-28 21:22 | 51.21726 | 11.10690 | 16298 ft | 232 kts | 343° |
| 2026-04-28 21:22 | 51.23267 | 11.09937 | 16298 ft | 232 kts | 343° |
| 2026-04-28 21:22 | 51.24809 | 11.09179 | 16300 ft | 232 kts | 343° |
| 2026-04-28 21:23 | 51.26349 | 11.08425 | 16304 ft | 232 kts | 343° |
| 2026-04-28 21:23 | 51.27891 | 11.07666 | 16305 ft | 232 kts | 343° |
| 2026-04-28 21:23 | 51.29433 | 11.06909 | 16306 ft | 232 kts | 343° |
| 2026-04-28 21:23 | 51.30975 | 11.06150 | 16308 ft | 231 kts | 343° |
| 2026-04-28 21:24 | 51.32512 | 11.05393 | 16312 ft | 231 kts | 343° |
| 2026-04-28 21:24 | 51.34053 | 11.04636 | 16313 ft | 232 kts | 343° |
| 2026-04-28 21:24 | 51.35593 | 11.03877 | 16314 ft | 232 kts | 343° |
| 2026-04-28 21:24 | 51.37134 | 11.03117 | 16315 ft | 232 kts | 343° |
| 2026-04-28 21:25 | 51.38673 | 11.02357 | 16314 ft | 232 kts | 343° |
| 2026-04-28 21:25 | 51.40212 | 11.01597 | 16317 ft | 231 kts | 343° |
| 2026-04-28 21:25 | 51.41751 | 11.00836 | 16315 ft | 231 kts | 343° |
| 2026-04-28 21:25 | 51.43288 | 11.00078 | 16318 ft | 231 kts | 343° |
| 2026-04-28 21:26 | 51.44826 | 10.99315 | 16316 ft | 231 kts | 343° |
| 2026-04-28 21:26 | 51.46362 | 10.98556 | 16319 ft | 231 kts | 343° |
| 2026-04-28 21:26 | 51.47898 | 10.97793 | 16322 ft | 231 kts | 343° |
| 2026-04-28 21:26 | 51.49427 | 10.97002 | 16323 ft | 231 kts | 342° |
| 2026-04-28 21:27 | 51.50952 | 10.96203 | 16320 ft | 231 kts | 342° |
| 2026-04-28 21:27 | 51.52477 | 10.95401 | 16321 ft | 230 kts | 342° |
| 2026-04-28 21:27 | 51.53998 | 10.94602 | 16320 ft | 230 kts | 342° |
| 2026-04-28 21:27 | 51.55518 | 10.93802 | 16321 ft | 230 kts | 342° |
| 2026-04-28 21:28 | 51.57042 | 10.93039 | 16314 ft | 229 kts | 346° |
| 2026-04-28 21:28 | 51.58614 | 10.92634 | 16311 ft | 229 kts | 353° |
| 2026-04-28 21:28 | 51.60198 | 10.92380 | 16314 ft | 229 kts | 353° |
| 2026-04-28 21:28 | 51.61759 | 10.92120 | 16318 ft | 229 kts | 353° |
| 2026-04-28 21:29 | 51.63340 | 10.91859 | 16321 ft | 229 kts | 353° |
| 2026-04-28 21:29 | 51.64926 | 10.91594 | 16319 ft | 229 kts | 353° |
| 2026-04-28 21:29 | 51.66509 | 10.91333 | 16319 ft | 229 kts | 353° |
| 2026-04-28 21:29 | 51.68091 | 10.91068 | 16319 ft | 229 kts | 353° |
| 2026-04-28 21:30 | 51.69676 | 10.90804 | 16321 ft | 229 kts | 353° |
| 2026-04-28 21:30 | 51.71258 | 10.90539 | 16322 ft | 229 kts | 353° |
| 2026-04-28 21:30 | 51.72844 | 10.90276 | 16324 ft | 229 kts | 353° |
| 2026-04-28 21:30 | 51.74429 | 10.90011 | 16326 ft | 229 kts | 353° |
| 2026-04-28 21:31 | 51.76016 | 10.89745 | 16326 ft | 229 kts | 353° |
| 2026-04-28 21:31 | 51.77601 | 10.89480 | 16327 ft | 229 kts | 353° |
| 2026-04-28 21:31 | 51.79187 | 10.89214 | 16328 ft | 229 kts | 353° |
| 2026-04-28 21:31 | 51.80776 | 10.88948 | 16328 ft | 229 kts | 353° |
| 2026-04-28 21:32 | 51.82364 | 10.88682 | 16327 ft | 230 kts | 353° |
| 2026-04-28 21:32 | 51.83954 | 10.88417 | 16327 ft | 230 kts | 353° |
| 2026-04-28 21:32 | 51.85543 | 10.88148 | 16328 ft | 230 kts | 353° |
| 2026-04-28 21:32 | 51.87132 | 10.87882 | 16324 ft | 230 kts | 353° |
| 2026-04-28 21:33 | 51.88721 | 10.87614 | 16322 ft | 229 kts | 353° |
| 2026-04-28 21:33 | 51.90309 | 10.87349 | 16329 ft | 229 kts | 353° |
| 2026-04-28 21:33 | 51.91895 | 10.87079 | 16329 ft | 229 kts | 353° |
| 2026-04-28 21:33 | 51.93479 | 10.86814 | 16331 ft | 229 kts | 353° |
| 2026-04-28 21:34 | 51.95046 | 10.86550 | 16329 ft | 229 kts | 353° |
| 2026-04-28 21:34 | 51.96632 | 10.86283 | 16332 ft | 229 kts | 353° |
| 2026-04-28 21:34 | 51.98220 | 10.86014 | 16330 ft | 229 kts | 353° |
| 2026-04-28 21:34 | 51.99803 | 10.85747 | 16332 ft | 229 kts | 353° |
| 2026-04-28 21:35 | 52.01391 | 10.85478 | 16334 ft | 229 kts | 353° |
| 2026-04-28 21:35 | 52.02978 | 10.85210 | 16335 ft | 229 kts | 354° |
| 2026-04-28 21:35 | 52.04566 | 10.84941 | 16335 ft | 229 kts | 353° |
| 2026-04-28 21:35 | 52.06153 | 10.84672 | 16335 ft | 229 kts | 354° |
| 2026-04-28 21:36 | 52.07737 | 10.84403 | 16335 ft | 229 kts | 353° |
| 2026-04-28 21:36 | 52.09320 | 10.84135 | 16334 ft | 229 kts | 354° |
| 2026-04-28 21:36 | 52.10906 | 10.83866 | 16337 ft | 229 kts | 353° |
| 2026-04-28 21:36 | 52.12490 | 10.83598 | 16337 ft | 229 kts | 354° |
| 2026-04-28 21:37 | 52.14073 | 10.83327 | 16339 ft | 229 kts | 353° |
| 2026-04-28 21:37 | 52.15658 | 10.83059 | 16336 ft | 229 kts | 354° |
| 2026-04-28 21:37 | 52.17239 | 10.82788 | 16338 ft | 228 kts | 354° |
| 2026-04-28 21:37 | 52.18819 | 10.82521 | 16336 ft | 228 kts | 354° |
| 2026-04-28 21:38 | 52.20399 | 10.82249 | 16340 ft | 228 kts | 354° |
| 2026-04-28 21:38 | 52.21978 | 10.81965 | 16341 ft | 228 kts | 353° |
| 2026-04-28 21:38 | 52.23556 | 10.81668 | 16344 ft | 228 kts | 353° |
| 2026-04-28 21:38 | 52.25135 | 10.81367 | 16339 ft | 229 kts | 353° |
| 2026-04-28 21:39 | 52.26716 | 10.81066 | 16342 ft | 229 kts | 353° |
| 2026-04-28 21:39 | 52.28295 | 10.80761 | 16342 ft | 229 kts | 353° |
| 2026-04-28 21:39 | 52.29875 | 10.80455 | 16342 ft | 229 kts | 353° |
| 2026-04-28 21:39 | 52.31455 | 10.80149 | 16343 ft | 228 kts | 353° |
| 2026-04-28 21:40 | 52.33012 | 10.79843 | 16341 ft | 228 kts | 353° |
| 2026-04-28 21:40 | 52.34587 | 10.79542 | 16342 ft | 228 kts | 354° |
| 2026-04-28 21:40 | 52.36173 | 10.79357 | 16343 ft | 228 kts | 357° |
| 2026-04-28 21:40 | 52.37759 | 10.79259 | 16338 ft | 228 kts | 357° |
| 2026-04-28 21:41 | 52.39342 | 10.79143 | 16343 ft | 228 kts | 357° |
| 2026-04-28 21:41 | 52.40927 | 10.79025 | 16343 ft | 228 kts | 357° |
| 2026-04-28 21:41 | 52.42512 | 10.78906 | 16344 ft | 228 kts | 357° |
| 2026-04-28 21:41 | 52.44097 | 10.78787 | 16348 ft | 228 kts | 357° |
| 2026-04-28 21:42 | 52.45682 | 10.78668 | 16345 ft | 228 kts | 357° |
| 2026-04-28 21:42 | 52.47263 | 10.78577 | 16345 ft | 228 kts | 358° |
| 2026-04-28 21:42 | 52.48847 | 10.78456 | 16345 ft | 228 kts | 357° |
| 2026-04-28 21:42 | 52.50430 | 10.78313 | 16347 ft | 228 kts | 357° |
| 2026-04-28 21:43 | 52.52012 | 10.78174 | 16346 ft | 228 kts | 357° |
| 2026-04-28 21:43 | 52.53595 | 10.78036 | 16350 ft | 228 kts | 357° |
| 2026-04-28 21:43 | 52.55175 | 10.77903 | 16353 ft | 228 kts | 357° |
| 2026-04-28 21:43 | 52.56757 | 10.77764 | 16350 ft | 228 kts | 357° |
| 2026-04-28 21:44 | 52.58337 | 10.77629 | 16354 ft | 228 kts | 357° |
| 2026-04-28 21:44 | 52.59919 | 10.77490 | 16355 ft | 227 kts | 357° |
| 2026-04-28 21:44 | 52.61501 | 10.77355 | 16357 ft | 227 kts | 357° |
| 2026-04-28 21:44 | 52.63083 | 10.77217 | 16355 ft | 227 kts | 357° |
| 2026-04-28 21:45 | 52.64662 | 10.77081 | 16360 ft | 227 kts | 357° |
| 2026-04-28 21:45 | 52.66243 | 10.76943 | 16358 ft | 227 kts | 357° |
| 2026-04-28 21:45 | 52.67826 | 10.76806 | 16355 ft | 228 kts | 357° |
| 2026-04-28 21:45 | 52.69407 | 10.76668 | 16356 ft | 228 kts | 357° |
| 2026-04-28 21:46 | 52.70989 | 10.76531 | 16361 ft | 228 kts | 357° |
| 2026-04-28 21:46 | 52.72570 | 10.76392 | 16360 ft | 227 kts | 357° |
| 2026-04-28 21:46 | 52.74128 | 10.76258 | 16359 ft | 227 kts | 357° |
| 2026-04-28 21:46 | 52.75710 | 10.76119 | 16359 ft | 227 kts | 357° |
| 2026-04-28 21:47 | 52.77291 | 10.75982 | 16358 ft | 227 kts | 357° |
| 2026-04-28 21:47 | 52.78871 | 10.75843 | 16361 ft | 227 kts | 357° |
| 2026-04-28 21:47 | 52.80451 | 10.75706 | 16363 ft | 227 kts | 357° |
| 2026-04-28 21:47 | 52.82029 | 10.75567 | 16364 ft | 227 kts | 357° |
| 2026-04-28 21:48 | 52.83607 | 10.75430 | 16364 ft | 227 kts | 357° |
| 2026-04-28 21:48 | 52.85185 | 10.75290 | 16364 ft | 227 kts | 357° |
| 2026-04-28 21:48 | 52.86763 | 10.75154 | 16364 ft | 227 kts | 357° |
| 2026-04-28 21:48 | 52.88344 | 10.75013 | 16312 ft | 230 kts | 357° |
| 2026-04-28 21:49 | 52.89972 | 10.74873 | 16052 ft | 239 kts | 357° |
| 2026-04-28 21:49 | 52.91666 | 10.74722 | 15795 ft | 247 kts | 357° |
| 2026-04-28 21:49 | 52.93404 | 10.74571 | 15544 ft | 253 kts | 357° |
| 2026-04-28 21:49 | 52.95174 | 10.74413 | 15309 ft | 256 kts | 357° |
| 2026-04-28 21:50 | 52.96967 | 10.74257 | 15078 ft | 259 kts | 357° |
| 2026-04-28 21:50 | 52.98775 | 10.74097 | 14844 ft | 261 kts | 357° |
| 2026-04-28 21:50 | 53.00594 | 10.73938 | 14614 ft | 262 kts | 357° |
| 2026-04-28 21:50 | 53.02396 | 10.73778 | 14392 ft | 263 kts | 357° |
| 2026-04-28 21:51 | 53.04227 | 10.73615 | 14138 ft | 264 kts | 357° |
| 2026-04-28 21:51 | 53.06056 | 10.73455 | 13812 ft | 261 kts | 357° |
| 2026-04-28 21:51 | 53.07849 | 10.73294 | 13469 ft | 256 kts | 357° |
| 2026-04-28 21:51 | 53.09619 | 10.73140 | 13168 ft | 252 kts | 358° |
| 2026-04-28 21:52 | 53.11352 | 10.72985 | 12891 ft | 247 kts | 358° |
| 2026-04-28 21:52 | 53.13055 | 10.72834 | 12641 ft | 243 kts | 358° |
| 2026-04-28 21:52 | 53.14732 | 10.72686 | 12363 ft | 240 kts | 358° |
| 2026-04-28 21:52 | 53.16393 | 10.72537 | 12087 ft | 238 kts | 358° |
| 2026-04-28 21:53 | 53.18042 | 10.72392 | 11827 ft | 236 kts | 358° |
| 2026-04-28 21:53 | 53.19677 | 10.72245 | 11552 ft | 235 kts | 358° |
| 2026-04-28 21:53 | 53.21308 | 10.72101 | 11287 ft | 234 kts | 358° |
| 2026-04-28 21:53 | 53.22927 | 10.71956 | 11030 ft | 232 kts | 358° |
| 2026-04-28 21:54 | 53.24540 | 10.71813 | 10757 ft | 232 kts | 358° |
| 2026-04-28 21:54 | 53.26154 | 10.71668 | 10457 ft | 233 kts | 358° |
| 2026-04-28 21:54 | 53.27774 | 10.71525 | 10152 ft | 233 kts | 358° |
| 2026-04-28 21:54 | 53.29393 | 10.71379 | 9832 ft | 233 kts | 358° |
| 2026-04-28 21:55 | 53.30992 | 10.71237 | 9511 ft | 233 kts | 359° |
| 2026-04-28 21:55 | 53.32608 | 10.71091 | 9200 ft | 232 kts | 358° |
| 2026-04-28 21:55 | 53.34222 | 10.70946 | 8890 ft | 232 kts | 359° |
| 2026-04-28 21:55 | 53.35832 | 10.70803 | 8590 ft | 232 kts | 358° |
| 2026-04-28 21:56 | 53.37440 | 10.70658 | 8284 ft | 231 kts | 359° |
| 2026-04-28 21:56 | 53.39043 | 10.70514 | 7986 ft | 230 kts | 359° |
| 2026-04-28 21:56 | 53.40642 | 10.70371 | 7697 ft | 230 kts | 359° |
| 2026-04-28 21:56 | 53.42225 | 10.70227 | 7498 ft | 226 kts | 359° |
| 2026-04-28 21:57 | 53.43783 | 10.70088 | 7303 ft | 223 kts | 359° |
| 2026-04-28 21:57 | 53.45323 | 10.69948 | 7109 ft | 221 kts | 359° |
| 2026-04-28 21:57 | 53.46842 | 10.69813 | 6981 ft | 215 kts | 359° |
| 2026-04-28 21:57 | 53.47834 | 10.69722 | 6986 ft | 208 kts | 359° |
| 2026-04-28 21:58 | 53.49253 | 10.69582 | 6983 ft | 200 kts | 358° |
| 2026-04-28 21:58 | 53.50621 | 10.69421 | 6980 ft | 194 kts | 358° |
| 2026-04-28 21:58 | 53.51930 | 10.69261 | 6985 ft | 189 kts | 358° |
| 2026-04-28 21:58 | 53.53224 | 10.69099 | 6988 ft | 184 kts | 358° |
| 2026-04-28 21:59 | 53.54513 | 10.68927 | 6938 ft | 184 kts | 358° |
| 2026-04-28 21:59 | 53.55783 | 10.68727 | 6808 ft | 187 kts | 357° |
| 2026-04-28 21:59 | 53.57106 | 10.68520 | 6681 ft | 189 kts | 357° |
| 2026-04-28 22:00 | 53.59729 | 10.68109 | 6450 ft | 192 kts | 357° |
| 2026-04-28 22:00 | 53.61058 | 10.67899 | 6328 ft | 192 kts | 357° |
| 2026-04-28 22:00 | 53.62390 | 10.67689 | 6225 ft | 192 kts | 357° |
| 2026-04-28 22:00 | 53.63651 | 10.66928 | 6042 ft | 200 kts | 328° |
| 2026-04-28 22:01 | 53.64507 | 10.65043 | 5887 ft | 208 kts | 298° |
| 2026-04-28 22:01 | 53.64877 | 10.62662 | 5722 ft | 215 kts | 279° |
| 2026-04-28 22:01 | 53.64957 | 10.60123 | 5519 ft | 218 kts | 277° |
| 2026-04-28 22:01 | 53.65068 | 10.57559 | 5320 ft | 221 kts | 277° |
| 2026-04-28 22:02 | 53.65181 | 10.54966 | 5129 ft | 223 kts | 277° |
| 2026-04-28 22:02 | 53.65297 | 10.52349 | 4915 ft | 224 kts | 277° |
| 2026-04-28 22:02 | 53.65404 | 10.50063 | 4744 ft | 225 kts | 277° |
| 2026-04-28 22:02 | 53.65530 | 10.47433 | 4539 ft | 226 kts | 277° |
| 2026-04-28 22:03 | 53.65661 | 10.44797 | 4340 ft | 226 kts | 277° |
| 2026-04-28 22:03 | 53.65938 | 10.42224 | 4109 ft | 223 kts | 293° |
| 2026-04-28 22:03 | 53.66803 | 10.40105 | 3867 ft | 219 kts | 320° |
| 2026-04-28 22:03 | 53.68111 | 10.38881 | 3646 ft | 214 kts | 344° |
| 2026-04-28 22:04 | 53.69517 | 10.38089 | 3468 ft | 213 kts | 343° |
| 2026-04-28 22:04 | 53.70900 | 10.37255 | 3381 ft | 208 kts | 343° |
| 2026-04-28 22:04 | 53.72251 | 10.36463 | 3302 ft | 203 kts | 347° |
| 2026-04-28 22:04 | 53.73608 | 10.36343 | 3150 ft | 196 kts | 15° |
| 2026-04-28 22:05 | 53.74661 | 10.37614 | 3110 ft | 186 kts | 58° |
| 2026-04-28 22:05 | 53.74998 | 10.39669 | 3094 ft | 182 kts | 84° |
| 2026-04-28 22:05 | 53.75129 | 10.41782 | 3054 ft | 179 kts | 82° |
| 2026-04-28 22:05 | 53.75285 | 10.43856 | 3040 ft | 176 kts | 82° |
| 2026-04-28 22:06 | 53.75549 | 10.45854 | 3041 ft | 171 kts | 73° |
| 2026-04-28 22:06 | 53.75887 | 10.47778 | 2891 ft | 172 kts | 73° |
| 2026-04-28 22:06 | 53.76235 | 10.49648 | 2734 ft | 163 kts | 71° |
| 2026-04-28 22:06 | 53.76589 | 10.51430 | 2450 ft | 154 kts | 72° |
| 2026-04-28 22:07 | 53.76899 | 10.53098 | 2233 ft | 145 kts | 71° |
| 2026-04-28 22:07 | 53.77216 | 10.54677 | 2040 ft | 140 kts | 71° |
| 2026-04-28 22:07 | 53.77506 | 10.56245 | 1916 ft | 135 kts | 71° |
| 2026-04-28 22:07 | 53.77805 | 10.57741 | 1689 ft | 136 kts | 70° |
| 2026-04-28 22:08 | 53.78085 | 10.59256 | 1476 ft | 135 kts | 71° |
| 2026-04-28 22:08 | 53.78371 | 10.60753 | 1250 ft | 132 kts | 69° |
| 2026-04-28 22:08 | 53.78673 | 10.62177 | 1066 ft | 127 kts | 68° |
| 2026-04-28 22:08 | 53.78946 | 10.63578 | 905 ft | 125 kts | 70° |
| 2026-04-28 22:09 | 53.79194 | 10.64974 | 749 ft | 123 kts | 70° |
| 2026-04-28 22:09 | 53.79457 | 10.66323 | 607 ft | 120 kts | 68° |
| 2026-04-28 22:09 | 53.79725 | 10.67653 | 440 ft | 119 kts | 70° |
| 2026-04-28 22:09 | 53.79975 | 10.68992 | 284 ft | 120 kts | 69° |
| 2026-04-28 22:10 | 53.80232 | 10.70334 | 116 ft | 118 kts | 69° |
| 2026-04-28 22:10 | 53.80470 | 10.71574 | 61 ft | 100 kts | 72° |
| 2026-04-28 22:10 | 53.80649 | 10.72522 | 55 ft | 61 kts | 71° |
| 2026-04-28 22:10 | 53.80718 | 10.72889 | 62 ft | 14 kts | 71° |
| 2026-04-28 22:11 | 53.80752 | 10.72984 | 61 ft | 2 kts | 112° |
| 2026-04-28 22:11 | 53.80742 | 10.72990 | 57 ft | 4 kts | 198° |
| 2026-04-28 22:11 | 53.80717 | 10.72894 | 62 ft | 18 kts | 253° |
| 2026-04-28 22:11 | 53.80666 | 10.72620 | 57 ft | 29 kts | 253° |
| 2026-04-28 22:12 | 53.80599 | 10.72266 | 57 ft | 33 kts | 251° |
| 2026-04-28 22:12 | 53.80527 | 10.71885 | 59 ft | 35 kts | 250° |
| 2026-04-28 22:12 | 53.80450 | 10.71494 | 60 ft | 36 kts | 252° |
| 2026-04-28 22:12 | 53.80371 | 10.71082 | 60 ft | 38 kts | 252° |
| 2026-04-28 22:13 | 53.80300 | 10.70702 | 55 ft | 29 kts | 255° |
| 2026-04-28 22:13 | 53.80323 | 10.70583 | 60 ft | 9 kts | 329° |
| 2026-04-28 22:13 | 53.80382 | 10.70513 | 57 ft | 12 kts | 324° |
| 2026-04-28 22:13 | 53.80438 | 10.70410 | 58 ft | 12 kts | 269° |
| 2026-04-28 22:14 | 53.80423 | 10.70322 | 58 ft | 5 kts | 250° |
| 2026-04-28 22:14 | 53.80420 | 10.70272 | 61 ft | 1 kts | 275° |
| 2026-04-28 22:14 | 53.80423 | 10.70252 | 61 ft | 1 kts | 307° |
| 2026-04-28 22:14 | 53.80427 | 10.70247 | 61 ft | 1 kts | 333° |
| 2026-04-28 22:15 | 53.80439 | 10.70240 | 57 ft | 4 kts | 338° |
| 2026-04-28 22:15 | 53.80450 | 10.70232 | 59 ft | 0 kts | 337° |